Cambria, Illinois
Current Conditions -  °F | °C
As of 6:52 AM on Friday 24 Oct 2014 (Local Time) from KMWA Reporting Station
Broken Clouds Broken Clouds  
Wind Chill: 50°   Ceiling: 3200
Heat Index: 50°   Visibility: 15mi
Dew Point: 46°   Wind: 6mph
Humidity: 87%   Direction: 180°S
Pressure: 30.12"   Gusts: NA
Location:  37.78°N, 89.12°W
Report Text: KMWA 241152Z 18005KT 15SM SCT022 BKN032 10/08 A3012
Loading
Personal Weather Stations






























Interactive Weather Map
Tropical Storm Tracking
New forecast layout! Learn more

10-Day Weather Forecast

Advertisements
Track Severe Weather on mobile